Time;durP1;ratioP1;P1;durP2;ratioP2;P2;SDS_P1;SDS_P2;PMS_P1;PMS_P2;Temp;Humidity;BMP_temperature;BMP_pressure;BME280_temperature;BME280_humidity;BME280_pressure;Samples;Min_cycle;Max_cycle;Signal;HPM_P1;HPM_P2
2022/08/10 00:04:06;;;;;;;0.57;0.50;;;19.70;46.30;21.80;94455.00;;;;10453792;28;45167;-60
2022/08/10 00:09:27;;;;;;;1.92;0.50;;;19.70;46.10;21.80;94470.00;;;;10427021;28;45158;-60
2022/08/10 00:14:47;;;;;;;1.15;0.60;;;19.70;46.10;21.80;94459.00;;;;10426300;28;45137;-60
2022/08/10 00:20:12;;;;;;;0.70;0.40;;;19.70;45.70;21.80;94465.00;;;;10426660;28;45226;-61
2022/08/10 00:25:33;;;;;;;0.75;0.50;;;19.70;45.60;21.80;94466.00;;;;10426249;28;45221;-60
2022/08/10 00:30:53;;;;;;;1.23;0.50;;;19.60;45.30;21.80;94458.00;;;;10430201;28;45277;-60
2022/08/10 00:36:15;;;;;;;1.10;0.50;;;19.60;45.80;21.80;94461.00;;;;10449043;28;45130;-60
2022/08/10 00:41:36;;;;;;;0.82;0.50;;;19.70;45.00;21.70;94454.00;;;;10433905;28;45177;-61
2022/08/10 00:46:59;;;;;;;0.68;0.40;;;19.60;45.00;21.80;94474.00;;;;10432483;28;45216;-60
2022/08/10 00:52:23;;;;;;;1.02;0.60;;;19.60;44.90;21.70;94454.00;;;;10432925;28;45240;-60
2022/08/10 00:57:44;;;;;;;1.38;0.50;;;19.60;44.80;21.70;94444.00;;;;10431003;28;45236;-62
2022/08/10 01:03:05;;;;;;;1.17;0.50;;;19.60;45.00;21.70;94446.00;;;;10439621;28;45297;-61
2022/08/10 01:08:36;;;;;;;1.60;0.40;;;19.60;45.00;21.70;94441.00;;;;10431854;28;45254;-62
2022/08/10 01:14:07;;;;;;;1.17;0.43;;;19.60;45.10;21.70;94434.00;;;;10431821;28;45201;-60
2022/08/10 01:19:52;;;;;;;1.65;0.65;;;19.60;45.00;21.70;94420.00;;;;10431891;28;45185;-60
2022/08/10 01:25:36;;;;;;;0.40;0.40;;;19.60;45.00;21.70;94433.00;;;;10432337;28;45177;-60
2022/08/10 01:31:02;;;;;;;0.88;0.43;;;19.60;45.00;21.70;94432.00;;;;10431567;28;45153;-61
2022/08/10 01:36:29;;;;;;;1.30;0.40;;;19.60;44.90;21.70;94425.00;;;;10446978;28;45223;-60
2022/08/10 01:41:55;;;;;;;0.82;0.60;;;19.60;45.10;21.70;94425.00;;;;10431035;28;45265;-60
2022/08/10 01:53:03;;;;;;;0.60;0.50;;;19.60;45.10;21.70;94420.00;;;;10431222;28;45219;-62
2022/08/10 01:58:26;;;;;;;0.60;0.50;;;19.60;45.10;21.70;94436.00;;;;10431272;28;45210;-60
2022/08/10 02:03:51;;;;;;;0.95;0.60;;;19.60;45.00;21.70;94437.00;;;;10440078;28;45213;-60
2022/08/10 02:09:17;;;;;;;0.73;0.50;;;19.60;45.00;21.70;94419.00;;;;10430898;28;45311;-60
2022/08/10 02:14:43;;;;;;;0.80;0.47;;;19.50;45.10;21.70;94421.00;;;;10425520;28;45236;-60
2022/08/10 02:20:10;;;;;;;0.93;0.60;;;19.50;45.10;21.70;94416.00;;;;10430486;28;45182;-60
2022/08/10 02:25:32;;;;;;;;;;;19.60;45.20;21.60;94417.00;;;;10430722;28;45376;-60
2022/08/10 02:30:56;;;;;;;0.65;0.40;;;19.60;45.00;21.60;94432.00;;;;10430031;28;45252;-60
2022/08/10 02:36:20;;;;;;;0.90;0.50;;;19.50;45.00;21.60;94413.00;;;;10444522;28;45138;-60
2022/08/10 02:41:47;;;;;;;0.90;0.63;;;19.60;45.00;21.60;94423.00;;;;10430386;28;45444;-60
2022/08/10 02:47:13;;;;;;;1.17;0.60;;;19.50;45.00;21.60;94415.00;;;;10428533;28;45216;-60
2022/08/10 02:52:43;;;;;;;0.88;0.60;;;19.50;44.90;21.60;94412.00;;;;10428986;28;45222;-60
2022/08/10 02:58:10;;;;;;;0.60;0.50;;;19.50;44.80;21.60;94414.00;;;;10428694;28;45184;-61
2022/08/10 03:03:37;;;;;;;0.80;0.50;;;19.50;44.80;21.60;94418.00;;;;10438434;28;45251;-60
2022/08/10 03:09:00;;;;;;;;;;;19.50;44.90;21.60;94421.00;;;;10428601;28;46469;-61
2022/08/10 03:14:21;;;;;;;1.00;0.80;;;19.50;44.80;21.60;94407.00;;;;10428578;28;45330;-60
2022/08/10 03:19:43;;;;;;;1.80;0.45;;;19.50;45.00;21.60;94412.00;;;;10428650;28;45182;-61
2022/08/10 03:25:07;;;;;;;1.25;0.50;;;19.50;44.80;21.60;94406.00;;;;10428414;28;45227;-60
2022/08/10 03:30:28;;;;;;;1.05;0.70;;;19.50;44.80;21.60;94395.00;;;;10427906;28;45149;-61
2022/08/10 03:35:49;;;;;;;0.80;0.47;;;19.50;44.60;21.60;94397.00;;;;10449131;28;45352;-60
2022/08/10 03:41:14;;;;;;;0.50;0.50;;;19.50;44.60;21.60;94396.00;;;;10414731;28;45229;-60
2022/08/10 03:46:38;;;;;;;1.58;0.50;;;19.50;44.70;21.60;94390.00;;;;10427572;28;45256;-60
2022/08/10 03:51:59;;;;;;;0.95;0.50;;;19.50;44.70;21.50;94401.00;;;;10427573;28;45326;-60
2022/08/10 03:57:22;;;;;;;1.15;0.70;;;19.40;44.60;21.50;94398.00;;;;10426458;28;45296;-60
2022/08/10 04:02:44;;;;;;;0.55;0.50;;;19.50;44.70;21.50;94395.00;;;;10437419;28;45307;-60
2022/08/10 04:08:05;;;;;;;0.93;0.63;;;19.40;44.80;21.50;94386.00;;;;10434699;28;45231;-60
2022/08/10 04:13:27;;;;;;;1.13;0.70;;;19.40;44.50;21.50;94397.00;;;;10434324;28;45177;-60
2022/08/10 04:18:47;;;;;;;1.20;0.70;;;19.40;44.50;21.50;94401.00;;;;10434443;28;45163;-60
2022/08/10 04:24:20;;;;;;;0.70;0.60;;;19.40;44.50;21.50;94410.00;;;;10434306;28;45261;-61
2022/08/10 04:29:43;;;;;;;0.50;0.50;;;19.50;44.70;21.50;94400.00;;;;10434161;28;45532;-60
2022/08/10 04:35:09;;;;;;;0.60;0.50;;;19.40;44.50;21.50;94404.00;;;;10444875;28;45414;-60
2022/08/10 04:40:30;;;;;;;0.68;0.60;;;19.40;44.40;21.50;94413.00;;;;10434113;28;45230;-60
2022/08/10 04:45:52;;;;;;;0.75;0.60;;;19.40;44.20;21.50;94410.00;;;;10433351;28;45231;-60
2022/08/10 04:51:15;;;;;;;1.67;0.68;;;19.40;44.00;21.50;94402.00;;;;10433489;28;45231;-60
2022/08/10 04:56:37;;;;;;;0.95;0.60;;;19.40;44.20;21.50;94402.00;;;;10432549;28;45169;-60
2022/08/10 05:01:59;;;;;;;0.30;0.30;;;19.40;44.10;21.50;94409.00;;;;10442835;28;45266;-60
2022/08/10 05:07:19;;;;;;;0.63;0.50;;;19.40;44.30;21.50;94412.00;;;;10420652;28;45135;-60
2022/08/10 05:12:40;;;;;;;0.52;0.40;;;19.40;44.30;21.50;94420.00;;;;10433396;28;45293;-60
2022/08/10 05:18:02;;;;;;;0.57;0.50;;;19.40;44.40;21.50;94423.00;;;;10431193;28;45173;-60
2022/08/10 05:23:23;;;;;;;0.73;0.60;;;19.40;44.40;21.50;94428.00;;;;10431794;28;45248;-60
2022/08/10 05:28:44;;;;;;;1.00;0.60;;;19.40;45.20;21.50;94435.00;;;;10431945;28;45266;-59
2022/08/10 05:34:06;;;;;;;1.10;0.47;;;19.40;44.70;21.50;94427.00;;;;10439820;28;45222;-62
2022/08/10 05:39:26;;;;;;;0.50;0.50;;;19.40;45.00;21.50;94423.00;;;;10432633;28;45410;-60
2022/08/10 05:44:47;;;;;;;0.90;0.70;;;19.40;45.10;21.50;94437.00;;;;10431408;28;45145;-60
2022/08/10 05:50:10;;;;;;;0.80;0.60;;;19.40;45.20;21.50;94438.00;;;;10430899;28;45232;-61
2022/08/10 05:55:32;;;;;;;0.85;0.50;;;19.40;45.40;21.50;94422.00;;;;10431278;28;45191;-59
2022/08/10 06:00:56;;;;;;;0.80;0.60;;;19.30;45.50;21.50;94438.00;;;;10420617;28;45195;-59
2022/08/10 06:06:21;;;;;;;1.25;0.60;;;19.40;45.80;21.50;94447.00;;;;10436712;28;45295;-59
2022/08/10 06:11:44;;;;;;;1.48;0.60;;;19.40;45.80;21.50;94437.00;;;;10430297;28;45133;-59
2022/08/10 06:17:06;;;;;;;0.95;0.60;;;19.40;45.90;21.50;94436.00;;;;10418591;28;45201;-60
2022/08/10 06:22:31;;;;;;;1.02;0.70;;;19.40;46.10;21.50;94424.00;;;;10429132;28;45268;-60
2022/08/10 06:27:55;;;;;;;1.23;0.70;;;19.40;46.20;21.50;94435.00;;;;10428387;28;45271;-60
2022/08/10 06:33:17;;;;;;;1.10;0.60;;;19.40;46.20;21.50;94426.00;;;;10429446;28;45210;-59
2022/08/10 06:38:42;;;;;;;2.25;0.50;;;19.40;46.30;21.50;94443.00;;;;10430886;28;45216;-59
2022/08/10 06:44:09;;;;;;;0.52;0.50;;;19.40;46.40;21.50;94445.00;;;;10428598;28;45147;-66
2022/08/10 06:49:32;;;;;;;0.82;0.73;;;19.40;46.40;21.50;94416.00;;;;10427247;28;45218;-60
2022/08/10 06:54:56;;;;;;;1.08;0.50;;;19.40;46.70;21.50;94443.00;;;;10428662;28;45419;-60
2022/08/10 07:00:17;;;;;;;0.73;0.50;;;19.40;46.90;21.50;94445.00;;;;10429537;28;45363;-61
2022/08/10 07:05:46;;;;;;;1.83;0.73;;;19.40;47.10;21.50;94444.00;;;;10439083;28;45212;-60
2022/08/10 07:11:09;;;;;;;2.17;0.70;;;19.40;47.20;21.40;94442.00;;;;10428288;28;45328;-61
2022/08/10 07:16:33;;;;;;;1.48;0.70;;;19.40;47.30;21.40;94434.00;;;;10428923;28;45212;-61
2022/08/10 07:21:54;;;;;;;1.95;0.60;;;19.40;47.30;21.40;94446.00;;;;10428603;28;45192;-60
2022/08/10 07:27:19;;;;;;;1.58;0.70;;;19.40;47.40;21.50;94434.00;;;;10427296;28;45192;-61
2022/08/10 07:32:44;;;;;;;1.20;0.60;;;19.30;47.50;21.50;94435.00;;;;10427911;28;45218;-60
2022/08/10 07:38:07;;;;;;;1.45;0.68;;;19.40;47.60;21.50;94419.00;;;;10443164;28;45202;-60
2022/08/10 07:43:37;;;;;;;1.83;0.68;;;19.40;47.60;21.50;94425.00;;;;10427544;28;45208;-60
2022/08/10 07:49:06;;;;;;;0.60;0.40;;;19.40;47.60;21.50;94435.00;;;;10424372;28;45355;-61
2022/08/10 07:54:29;;;;;;;0.93;0.70;;;19.40;47.70;21.50;94428.00;;;;10417409;28;45221;-61
2022/08/10 07:59:56;;;;;;;1.58;0.55;;;19.30;47.80;21.50;94416.00;;;;10433858;28;45166;-61
2022/08/10 08:05:19;;;;;;;;;;;19.40;47.80;21.50;94425.00;;;;10434203;28;45252;-61
2022/08/10 08:10:41;;;;;;;0.50;0.40;;;19.40;47.80;21.60;94407.00;;;;10433884;28;45125;-61
2022/08/10 08:16:05;;;;;;;3.40;0.60;;;19.40;47.70;21.60;94422.00;;;;10430536;28;45077;-61
2022/08/10 08:21:27;;;;;;;0.70;0.52;;;19.40;47.90;21.60;94419.00;;;;10428324;28;45244;-61
2022/08/10 08:26:49;;;;;;;1.02;0.65;;;19.40;48.00;21.50;94435.00;;;;10425897;28;45276;-61
2022/08/10 08:32:15;;;;;;;1.00;0.57;;;19.40;47.90;21.60;94428.00;;;;10428040;28;45238;-61
2022/08/10 08:37:37;;;;;;;1.25;0.57;;;19.40;48.00;21.60;94426.00;;;;10443633;28;45192;-61
2022/08/10 08:43:27;;;;;;;1.27;0.60;;;19.40;48.00;21.60;94423.00;;;;10428127;28;45260;-61
2022/08/10 08:49:31;;;;;;;0.60;0.50;;;19.40;48.20;21.60;94415.00;;;;10430224;28;45197;-62
2022/08/10 08:55:03;;;;;;;0.45;0.45;;;19.50;48.10;21.60;94435.00;;;;10427956;28;45331;-61
2022/08/10 09:00:34;;;;;;;0.80;0.38;;;19.50;48.10;21.60;94435.00;;;;10434499;28;45299;-60
2022/08/10 09:06:07;;;;;;;1.13;0.50;;;19.50;48.40;21.60;94421.00;;;;10424996;28;45361;-60
2022/08/10 09:11:49;;;;;;;0.40;0.40;;;19.50;48.40;21.70;94426.00;;;;10433951;28;45296;-62
2022/08/10 09:17:20;;;;;;;1.02;0.50;;;19.50;48.50;21.70;94417.00;;;;10434077;28;45169;-61
2022/08/10 09:22:53;;;;;;;0.68;0.32;;;19.60;48.70;21.70;94411.00;;;;10433108;28;45181;-61
2022/08/10 09:28:23;;;;;;;1.20;0.47;;;19.60;48.70;21.70;94411.00;;;;10419698;28;45257;-61
2022/08/10 09:33:53;;;;;;;1.23;0.52;;;19.60;48.80;21.70;94411.00;;;;10433525;28;45283;-61
2022/08/10 09:39:24;;;;;;;0.90;0.50;;;19.50;48.80;21.70;94400.00;;;;10468975;28;45196;-61
2022/08/10 09:44:53;;;;;;;0.50;0.43;;;19.60;48.70;21.70;94411.00;;;;10427447;28;45214;-61
2022/08/10 09:50:25;;;;;;;1.95;0.50;;;19.60;48.70;21.70;94413.00;;;;10438160;28;45153;-61
2022/08/10 09:55:59;;;;;;;1.13;0.50;;;19.60;48.60;21.70;94411.00;;;;10426001;28;45322;-61
2022/08/10 10:01:28;;;;;;;1.30;0.55;;;19.60;48.60;21.70;94406.00;;;;10436180;28;45128;-61
2022/08/10 10:06:56;;;;;;;1.58;0.60;;;19.60;48.60;21.70;94402.00;;;;10437235;28;45173;-61
2022/08/10 10:12:26;;;;;;;0.68;0.38;;;19.60;48.60;21.70;94403.00;;;;10426623;28;45225;-61
2022/08/10 10:18:09;;;;;;;0.90;0.50;;;19.60;48.60;21.70;94398.00;;;;10431798;28;45228;-60
2022/08/10 10:23:48;;;;;;;0.82;0.50;;;19.60;48.60;21.70;94397.00;;;;10419023;28;45194;-61
2022/08/10 10:29:29;;;;;;;1.50;0.45;;;19.60;48.60;21.70;94408.00;;;;10431155;28;45177;-61
2022/08/10 10:34:56;;;;;;;0.88;0.60;;;19.60;48.80;21.70;94406.00;;;;10431198;28;45240;-61
2022/08/10 10:40:19;;;;;;;1.30;0.50;;;19.50;48.80;21.70;94399.00;;;;10441734;28;45246;-61
2022/08/10 10:45:53;;;;;;;0.75;0.45;;;19.60;48.90;21.70;94409.00;;;;10431171;28;45250;-61
2022/08/10 10:51:24;;;;;;;0.55;0.40;;;19.60;48.90;21.70;94406.00;;;;10431384;28;45399;-61
2022/08/10 10:56:58;;;;;;;0.75;0.40;;;19.50;48.90;21.70;94397.00;;;;10429993;28;45232;-61
2022/08/10 11:02:39;;;;;;;0.60;0.40;;;19.50;49.00;21.70;94410.00;;;;10440444;28;45078;-61
2022/08/10 11:08:05;;;;;;;0.88;0.50;;;19.60;49.00;21.70;94382.00;;;;10430260;28;45215;-60
2022/08/10 11:13:34;;;;;;;0.32;0.30;;;19.60;49.00;21.70;94392.00;;;;10429408;28;45200;-60
2022/08/10 11:19:06;;;;;;;1.67;0.40;;;19.60;49.10;21.70;94411.00;;;;10430732;28;45318;-61
2022/08/10 11:24:37;;;;;;;0.70;0.30;;;19.50;49.00;21.70;94405.00;;;;10435735;28;45284;-61
2022/08/10 11:30:05;;;;;;;0.88;0.50;;;19.60;49.10;21.70;94403.00;;;;10423577;28;45203;-61
2022/08/10 11:35:35;;;;;;;1.02;0.40;;;19.60;49.10;21.70;94402.00;;;;10442509;28;45281;-62
2022/08/10 11:41:07;;;;;;;0.88;0.57;;;19.50;49.00;21.70;94401.00;;;;10442126;28;45511;-61
2022/08/10 11:46:33;;;;;;;0.50;0.50;;;19.60;49.10;21.70;94395.00;;;;10432744;28;45168;-62
2022/08/10 11:52:01;;;;;;;0.68;0.47;;;19.60;49.10;21.70;94410.00;;;;10432002;28;45309;-61
2022/08/10 11:57:29;;;;;;;0.50;0.50;;;19.60;49.10;21.70;94406.00;;;;10427961;28;45156;-62
2022/08/10 12:02:53;;;;;;;1.05;0.40;;;19.50;49.10;21.70;94400.00;;;;10430369;28;45142;-61
2022/08/10 12:08:18;;;;;;;0.82;0.50;;;19.60;49.20;21.70;94395.00;;;;10427637;28;45283;-61
2022/08/10 12:13:46;;;;;;;1.58;0.57;;;19.60;49.20;21.80;94389.00;;;;10426893;28;45252;-60
2022/08/10 12:19:19;;;;;;;0.95;0.65;;;19.60;49.30;21.80;94376.00;;;;10426572;28;45234;-62
2022/08/10 12:24:48;;;;;;;1.52;0.70;;;19.60;49.30;21.70;94383.00;;;;10426971;28;45391;-61
2022/08/10 12:30:11;;;;;;;1.33;0.45;;;19.60;49.20;21.80;94387.00;;;;10424446;28;45269;-61
2022/08/10 12:35:40;;;;;;;1.73;0.60;;;19.60;49.20;21.80;94405.00;;;;10434232;28;45225;-61
2022/08/10 12:41:08;;;;;;;1.15;0.63;;;19.60;49.20;21.80;94394.00;;;;10441934;28;45176;-62
2022/08/10 12:46:38;;;;;;;1.50;0.50;;;19.60;49.20;21.80;94381.00;;;;10435539;28;45199;-61
2022/08/10 12:52:08;;;;;;;0.80;0.40;;;19.60;49.20;21.80;94395.00;;;;10434981;28;45175;-61
2022/08/10 12:57:35;;;;;;;1.02;0.50;;;19.70;49.30;21.80;94390.00;;;;10434332;28;45274;-61
2022/08/10 13:02:59;;;;;;;0.75;0.50;;;19.70;49.30;21.80;94381.00;;;;10444994;28;45188;-61
2022/08/10 13:14:08;;;;;;;1.63;0.70;;;19.70;49.30;21.80;94362.00;;;;10423546;28;45237;-62
2022/08/10 13:19:35;;;;;;;0.65;0.50;;;19.70;49.40;21.90;94376.00;;;;10432256;28;45363;-62
2022/08/10 13:25:01;;;;;;;1.45;0.50;;;19.80;49.20;21.90;94379.00;;;;10432008;28;45316;-62
2022/08/10 13:30:26;;;;;;;0.65;0.50;;;19.80;49.10;21.90;94371.00;;;;10431930;28;45258;-62
2022/08/10 13:35:48;;;;;;;2.05;0.50;;;19.80;49.40;21.90;94351.00;;;;10432156;28;45212;-62
2022/08/10 13:41:10;;;;;;;1.42;0.38;;;19.80;49.40;21.90;94360.00;;;;10436069;28;45283;-62
2022/08/10 13:46:32;;;;;;;1.17;0.60;;;19.70;49.30;21.90;94359.00;;;;10431769;28;45143;-62
2022/08/10 13:51:55;;;;;;;1.10;0.50;;;19.70;49.40;21.90;94356.00;;;;10431259;28;45258;-62
2022/08/10 13:57:21;;;;;;;0.70;0.50;;;19.70;49.40;21.90;94344.00;;;;10430209;28;45206;-62
2022/08/10 14:02:49;;;;;;;0.83;0.40;;;19.80;49.30;22.00;94327.00;;;;10440540;28;45446;-62
2022/08/10 14:08:13;;;;;;;1.08;0.47;;;19.80;49.30;22.00;94354.00;;;;10426016;28;45183;-62
2022/08/10 14:13:37;;;;;;;0.60;0.50;;;19.90;49.20;22.00;94325.00;;;;10425074;28;45483;-62
2022/08/10 14:19:05;;;;;;;0.50;0.40;;;19.90;48.90;22.10;94317.00;;;;10428317;28;45137;-63
2022/08/10 14:24:27;;;;;;;1.35;0.60;;;20.00;48.70;22.10;94319.00;;;;10430525;28;45289;-62
2022/08/10 14:29:54;;;;;;;1.55;0.50;;;20.00;48.80;22.10;94307.00;;;;10425356;28;45533;-63
2022/08/10 14:35:18;;;;;;;1.92;0.30;;;20.00;48.90;22.10;94295.00;;;;10428339;28;45359;-61
2022/08/10 14:40:44;;;;;;;2.35;0.80;;;20.00;48.70;22.10;94311.00;;;;10433650;28;45270;-62
2022/08/10 14:46:07;;;;;;;5.17;2.20;;;20.00;48.60;22.20;94314.00;;;;10429583;28;45415;-62
2022/08/10 14:51:30;;;;;;;6.82;2.40;;;20.00;48.40;22.20;94299.00;;;;10428640;28;45192;-61
2022/08/10 14:56:51;;;;;;;5.35;1.90;;;20.00;48.20;22.20;94285.00;;;;10427957;28;45265;-61
2022/08/10 15:02:17;;;;;;;5.25;1.60;;;20.10;48.00;22.20;94283.00;;;;10439495;28;45269;-61
2022/08/10 15:07:40;;;;;;;2.77;1.17;;;20.10;48.10;22.20;94300.00;;;;10428975;28;45233;-61
2022/08/10 15:13:06;;;;;;;4.28;1.20;;;20.10;48.00;22.20;94301.00;;;;10427926;28;45383;-62
2022/08/10 15:18:30;;;;;;;4.82;1.20;;;20.10;48.00;22.30;94294.00;;;;10446406;28;45215;-61
2022/08/10 15:23:53;;;;;;;3.85;1.00;;;20.20;48.10;22.30;94284.00;;;;10433392;28;45189;-61
2022/08/10 15:29:14;;;;;;;2.70;1.00;;;20.20;48.00;22.30;94290.00;;;;10432128;28;45107;-61
2022/08/10 15:40:18;;;;;;;1.88;0.70;;;20.20;47.90;22.30;94267.00;;;;10427815;28;45137;-61
2022/08/10 15:45:39;;;;;;;3.08;0.90;;;20.20;47.80;22.40;94297.00;;;;10427098;28;45232;-61
2022/08/10 15:51:09;;;;;;;1.08;0.60;;;20.20;47.70;22.40;94274.00;;;;10428106;28;45314;-61
2022/08/10 15:56:44;;;;;;;4.80;1.00;;;20.20;47.60;22.40;94283.00;;;;10426463;28;45324;-61
2022/08/10 16:02:12;;;;;;;2.08;0.60;;;20.30;47.60;22.40;94283.00;;;;10443958;28;45600;-61
2022/08/10 16:07:36;;;;;;;1.33;0.60;;;20.30;47.40;22.40;94270.00;;;;10424087;28;45401;-61
2022/08/10 16:13:01;;;;;;;1.38;0.70;;;20.30;47.40;22.40;94262.00;;;;10433818;28;45379;-61
2022/08/10 16:18:26;;;;;;;1.88;0.45;;;20.30;47.30;22.40;94270.00;;;;10449440;28;45758;-61
2022/08/10 16:23:55;;;;;;;2.40;0.57;;;20.40;47.30;22.50;94277.00;;;;10431969;28;45292;-61
2022/08/10 16:29:22;;;;;;;2.67;0.60;;;20.40;47.20;22.50;94261.00;;;;10437137;28;45228;-61
2022/08/10 16:34:49;;;;;;;1.48;0.60;;;20.40;47.10;22.50;94272.00;;;;10419817;28;44637;-61
2022/08/10 16:40:13;;;;;;;2.88;0.60;;;20.40;47.30;22.50;94269.00;;;;10437178;28;45395;-61
2022/08/10 16:45:39;;;;;;;2.58;0.70;;;20.40;47.30;22.50;94270.00;;;;10437292;28;45377;-61
2022/08/10 16:51:03;;;;;;;1.98;0.68;;;20.40;46.70;22.50;94275.00;;;;10427990;28;45227;-61
2022/08/10 16:56:33;;;;;;;1.73;0.50;;;20.40;47.30;22.50;94268.00;;;;10457207;28;45163;-61
2022/08/10 17:01:55;;;;;;;1.13;0.50;;;20.30;47.00;22.40;94269.00;;;;10443479;28;45335;-63
2022/08/10 17:07:18;;;;;;;2.42;0.70;;;20.30;47.20;22.40;94266.00;;;;10423440;28;45320;-63
2022/08/10 17:12:40;;;;;;;1.25;0.52;;;20.30;47.00;22.40;94254.00;;;;10437088;28;45285;-61
2022/08/10 17:18:06;;;;;;;2.97;0.65;;;20.30;47.10;22.40;94263.00;;;;10436853;28;45259;-63
2022/08/10 17:23:33;;;;;;;0.82;0.52;;;20.30;47.10;22.40;94275.00;;;;10431468;28;45269;-63
2022/08/10 17:28:59;;;;;;;0.70;0.50;;;20.20;47.20;22.40;94266.00;;;;10429725;28;45270;-62
2022/08/10 17:34:29;;;;;;;1.45;0.75;;;20.20;47.20;22.40;94261.00;;;;10427777;28;45456;-62
2022/08/10 17:40:02;;;;;;;0.88;0.50;;;20.20;47.30;22.30;94266.00;;;;10428472;28;45519;-63
2022/08/10 17:45:25;;;;;;;0.68;0.40;;;20.20;47.40;22.30;94278.00;;;;10427534;28;45221;-63
2022/08/10 17:50:52;;;;;;;1.00;0.40;;;20.20;47.40;22.30;94273.00;;;;10430190;28;45261;-63
2022/08/10 17:56:14;;;;;;;0.33;0.30;;;20.20;47.30;22.30;94270.00;;;;10429662;28;45343;-62
2022/08/10 18:01:36;;;;;;;1.75;0.50;;;20.20;47.30;22.30;94281.00;;;;10428292;28;45356;-62
2022/08/10 18:07:01;;;;;;;0.88;0.47;;;20.10;47.40;22.30;94287.00;;;;10426618;28;45464;-62
2022/08/10 18:12:27;;;;;;;0.73;0.45;;;20.10;47.30;22.30;94286.00;;;;10431247;28;45202;-62
2022/08/10 18:17:51;;;;;;;;;;;20.20;47.20;22.30;94291.00;;;;10430134;28;45183;-62
2022/08/10 18:23:13;;;;;;;0.55;0.30;;;20.20;47.60;22.30;94296.00;;;;10429170;28;45149;-62
2022/08/10 18:28:35;;;;;;;1.23;0.50;;;20.10;47.30;22.30;94286.00;;;;10431305;28;45154;-62
2022/08/10 18:33:57;;;;;;;0.65;0.47;;;20.10;47.60;22.30;94301.00;;;;10430579;28;45223;-62
2022/08/10 18:39:24;;;;;;;0.75;0.40;;;20.10;47.50;22.30;94288.00;;;;10436787;28;45185;-62
2022/08/10 18:44:52;;;;;;;;;;;20.10;47.70;22.30;94293.00;;;;10420587;28;45170;-62
2022/08/10 18:50:17;;;;;;;2.72;0.50;;;20.10;47.50;22.20;94303.00;;;;10429741;28;45264;-62
2022/08/10 18:55:40;;;;;;;0.90;0.50;;;20.10;47.70;22.20;94311.00;;;;10429465;28;45161;-62
2022/08/10 19:01:28;;;;;;;1.00;0.50;;;20.00;47.70;22.20;94303.00;;;;10432060;28;45234;-62
2022/08/10 19:07:08;;;;;;;1.55;0.52;;;20.00;47.70;22.20;94317.00;;;;10426662;28;45244;-62
2022/08/10 19:12:49;;;;;;;0.68;0.32;;;20.00;47.70;22.20;94325.00;;;;10428755;28;45264;-62
2022/08/10 19:18:31;;;;;;;1.02;0.38;;;20.00;48.00;22.20;94333.00;;;;10427705;28;45277;-62
2022/08/10 19:24:03;;;;;;;0.60;0.40;;;20.00;47.90;22.20;94330.00;;;;10428073;28;45169;-62
2022/08/10 19:29:32;;;;;;;0.50;0.40;;;20.00;47.90;22.20;94333.00;;;;10427866;28;45256;-62
2022/08/10 19:35:03;;;;;;;0.68;0.40;;;20.00;48.00;22.20;94321.00;;;;10427659;28;45173;-63
2022/08/10 19:40:35;;;;;;;1.77;0.52;;;20.00;48.00;22.20;94330.00;;;;10428713;28;45157;-62
2022/08/10 19:46:05;;;;;;;2.30;0.50;;;20.00;48.00;22.20;94336.00;;;;10428659;28;45513;-62
2022/08/10 19:51:36;;;;;;;1.08;0.40;;;20.00;47.90;22.10;94329.00;;;;10428054;28;45203;-62
2022/08/10 19:57:07;;;;;;;0.43;0.30;;;20.00;48.30;22.20;94342.00;;;;10433252;28;45472;-62
2022/08/10 20:02:36;;;;;;;0.75;0.40;;;19.90;48.20;22.10;94335.00;;;;10426509;28;45169;-62
2022/08/10 20:08:10;;;;;;;0.60;0.40;;;20.00;48.10;22.10;94334.00;;;;10427676;28;45348;-63
2022/08/10 20:13:42;;;;;;;1.88;0.38;;;20.00;48.10;22.10;94333.00;;;;10426892;28;45221;-62
2022/08/10 20:19:16;;;;;;;0.40;0.40;;;19.90;48.10;22.10;94332.00;;;;10427126;28;45339;-62
2022/08/10 20:24:47;;;;;;;1.52;0.50;;;20.00;48.10;22.10;94333.00;;;;10424688;28;45363;-62
2022/08/10 20:30:10;;;;;;;0.52;0.30;;;20.00;48.20;22.10;94341.00;;;;10423823;28;45254;-62
2022/08/10 20:35:52;;;;;;;0.47;0.30;;;19.90;48.10;22.10;94341.00;;;;10425780;28;45263;-63
2022/08/10 20:41:22;;;;;;;1.25;0.38;;;19.90;48.00;22.10;94345.00;;;;10426698;28;45212;-62
2022/08/10 20:46:50;;;;;;;0.73;0.38;;;19.90;48.00;22.10;94339.00;;;;10428126;28;45248;-62
2022/08/10 20:52:13;;;;;;;0.77;0.52;;;19.90;48.20;22.10;94329.00;;;;10434180;28;45195;-63
2022/08/10 20:58:07;;;;;;;0.40;0.40;;;19.90;48.00;22.10;94317.00;;;;10442840;28;45198;-63
2022/08/10 21:03:50;;;;;;;0.25;0.25;;;19.90;48.30;22.10;94317.00;;;;10442858;28;45210;-62
2022/08/10 21:09:29;;;;;;;0.30;0.30;;;19.90;48.10;22.10;94319.00;;;;10422465;28;45284;-62
2022/08/10 21:15:00;;;;;;;0.88;0.40;;;19.90;48.30;22.10;94309.00;;;;10431341;28;45182;-63
2022/08/10 21:20:42;;;;;;;0.70;0.40;;;19.90;48.40;22.10;94323.00;;;;10432610;28;45235;-62
2022/08/10 22:52:26;;;;;;;0.57;0.45;;;19.80;48.40;22.00;94288.00;;;;10429729;28;45583;-62
2022/08/10 23:03:33;;;;;;;0.47;0.38;;;19.80;48.30;22.00;94292.00;;;;10442226;28;45156;-62
2022/08/10 23:09:00;;;;;;;0.45;0.30;;;19.80;48.10;22.00;94290.00;;;;10428600;28;45149;-62
2022/08/10 23:20:07;;;;;;;0.30;0.30;;;19.80;48.20;21.90;94292.00;;;;10428903;28;45151;-62
2022/08/10 23:25:31;;;;;;;0.65;0.32;;;19.80;48.10;21.90;94284.00;;;;10428483;28;45280;-62
2022/08/10 23:30:52;;;;;;;0.68;0.40;;;19.80;48.10;21.90;94282.00;;;;10428797;28;45204;-62
2022/08/10 23:36:15;;;;;;;0.47;0.30;;;19.80;47.90;21.90;94285.00;;;;10428363;28;45364;-62
2022/08/10 23:41:39;;;;;;;0.70;0.40;;;19.80;48.00;21.90;94272.00;;;;10428946;28;44964;-62
2022/08/10 23:47:02;;;;;;;0.73;0.30;;;19.80;47.90;21.90;94279.00;;;;10427821;28;45222;-62
2022/08/10 23:52:26;;;;;;;0.38;0.30;;;19.80;47.70;21.90;94272.00;;;;10428992;28;45342;-62
2022/08/10 23:57:54;;;;;;;0.38;0.30;;;19.70;47.70;21.90;94266.00;;;;10434396;28;45282;-62
